EmailTwitter


Surface observations / United States / KJFK (74486)

Regions: Quebec | Canada | USA | Europe | France | UK | Elsewhere
Station
Display
Info & Location for KJFK (74486) | Help decoding METAR

Weather Conditions observed on 2019/01/20 at 18:51 UTC at NEW YORK/JF KENN, NY (KJFK)

Sky conditions: partly cloudy.

Temperature: 3.0 Celsius.

Dewpoint: 2.0 Celsius.

Relative Humidity: 93%

Windchill Factor: -2.

Windchill Factor (Gusts): -3.

Winds: Northwest at 28 km/h or 15 knots.

Gust: 41 km/h or 22 knots.

Mean Sea level Pressure: 99.22 kilopascals.

Altimeter Setting (QNH): 99.22 kilopascals or 29.30 inches of mercury.

Horizontal visibility: 10.00 statute miles or 16.00 kilometers.

Height of the Ceiling: 488 metres ( 1600 feet ).

Coded METAR:

KJFK 201851Z 32015G22KT 10SM BKN016 BKN025 BKN055 BKN150 03/02 A2930 RMK AO2 PK

WND 31026/1809 SLP922 T00330017=